createdAt,value
2017-12-25T00:00:16.096Z,1.90
2017-12-25T00:02:43.552Z,2.87
2017-12-25T00:05:11.070Z,2.67
2017-12-25T00:07:39.287Z,2.63
2017-12-25T00:10:06.747Z,2.00
2017-12-25T00:12:34.510Z,1.67
2017-12-25T00:15:01.977Z,2.07
2017-12-25T00:17:29.438Z,2.93
2017-12-25T00:19:56.911Z,2.27
2017-12-25T00:22:24.375Z,2.40
2017-12-25T00:24:53.353Z,2.20
2017-12-25T00:27:20.810Z,2.20
2017-12-25T00:29:48.286Z,1.80
2017-12-25T00:32:15.751Z,2.10
2017-12-25T00:34:43.217Z,2.17
2017-12-25T00:37:11.447Z,2.57
2017-12-25T00:39:38.916Z,2.23
2017-12-25T00:42:06.379Z,2.23
2017-12-25T00:44:33.850Z,2.70
2017-12-25T00:47:01.311Z,2.13
2017-12-25T00:49:28.795Z,2.23
2017-12-25T00:51:57.022Z,2.00
2017-12-25T00:54:24.489Z,2.00
2017-12-25T00:56:52.020Z,2.03
2017-12-25T00:59:19.480Z,2.30
2017-12-25T01:01:46.949Z,2.13
2017-12-25T01:04:14.420Z,2.40
2017-12-25T01:06:41.991Z,2.30
2017-12-25T01:09:09.451Z,2.20
2017-12-25T01:11:37.002Z,2.70
2017-12-25T01:14:04.459Z,2.27
2017-12-25T01:16:31.947Z,2.07
2017-12-25T01:18:59.405Z,2.70
2017-12-25T01:21:26.862Z,2.23
2017-12-25T01:23:55.087Z,1.87
2017-12-25T01:26:22.563Z,2.20
2017-12-25T01:28:50.011Z,2.57
2017-12-25T01:31:17.473Z,1.90
2017-12-25T01:33:44.963Z,2.40
2017-12-25T01:36:12.514Z,2.53
2017-12-25T01:38:39.975Z,2.57
2017-12-25T01:41:07.438Z,2.00
2017-12-25T01:43:34.902Z,2.70
2017-12-25T01:46:02.366Z,1.70
2017-12-25T01:48:30.602Z,2.10
2017-12-25T01:50:58.074Z,2.30
2017-12-25T01:53:26.454Z,3.00
2017-12-25T01:55:54.018Z,2.37
2017-12-25T01:58:37.862Z,2.63
2017-12-25T02:01:08.182Z,3.50
2017-12-25T02:03:35.646Z,3.33
2017-12-25T02:06:10.367Z,3.83
2017-12-25T02:08:37.922Z,3.20
2017-12-25T02:11:05.390Z,3.10
2017-12-25T02:13:33.606Z,3.40
2017-12-25T02:16:01.130Z,3.33
2017-12-25T02:18:30.119Z,2.70
2017-12-25T02:20:57.586Z,2.43
2017-12-25T02:23:25.040Z,1.70
2017-12-25T02:25:52.595Z,2.00
2017-12-25T02:28:20.046Z,1.83
2017-12-25T02:30:47.520Z,1.80
2017-12-25T02:33:14.979Z,1.40
2017-12-25T02:35:43.246Z,1.50
2017-12-25T02:38:10.698Z,1.50
2017-12-25T02:40:38.158Z,1.77
2017-12-25T02:43:05.619Z,1.57
2017-12-25T02:45:33.180Z,1.70
2017-12-25T02:48:00.634Z,1.87
2017-12-25T02:50:28.094Z,2.03
2017-12-25T02:52:55.560Z,2.00
2017-12-25T02:55:23.796Z,1.90
2017-12-25T02:57:51.257Z,3.20
2017-12-25T03:00:19.112Z,2.50
2017-12-25T03:02:46.612Z,3.00
2017-12-25T03:05:15.638Z,3.00
2017-12-25T03:07:43.878Z,3.00
2017-12-25T03:10:11.438Z,2.93
2017-12-25T03:12:38.890Z,2.40
2017-12-25T03:15:06.354Z,1.83
2017-12-25T03:17:33.831Z,2.27
2017-12-25T03:20:01.294Z,1.77
2017-12-25T03:22:29.523Z,1.70
2017-12-25T03:24:57.020Z,2.30
2017-12-25T03:27:25.244Z,1.63
2017-12-25T03:29:52.706Z,2.00
2017-12-25T03:32:20.206Z,1.77
2017-12-25T03:34:47.772Z,1.63
2017-12-25T03:37:16.010Z,1.97
2017-12-25T03:39:43.472Z,1.70
2017-12-25T03:42:10.948Z,1.53
2017-12-25T03:44:38.406Z,1.70
2017-12-25T03:47:05.883Z,1.70
2017-12-25T03:49:33.352Z,1.50
2017-12-25T03:52:00.815Z,1.30
2017-12-25T03:54:29.107Z,1.77
2017-12-25T03:56:56.536Z,1.33
2017-12-25T03:59:25.492Z,1.60
2017-12-25T04:01:52.967Z,1.43
2017-12-25T04:04:20.432Z,1.50
2017-12-25T04:06:48.007Z,1.80
2017-12-25T04:09:15.476Z,1.50
2017-12-25T04:11:43.723Z,1.50
2017-12-25T04:14:11.188Z,1.67
2017-12-25T04:16:39.438Z,1.60
2017-12-25T04:19:06.929Z,2.10
2017-12-25T04:21:35.168Z,1.53
2017-12-25T04:24:02.636Z,1.70
2017-12-25T04:26:30.105Z,1.57
2017-12-25T04:28:57.563Z,1.60
2017-12-25T04:31:25.145Z,2.57
2017-12-25T04:33:53.375Z,1.97
2017-12-25T04:36:20.859Z,2.23
2017-12-25T04:38:48.319Z,1.70
2017-12-25T04:41:15.891Z,1.93
2017-12-25T04:43:43.456Z,1.80
2017-12-25T04:46:10.927Z,2.00
2017-12-25T04:48:39.187Z,2.10
2017-12-25T04:51:06.659Z,1.70
2017-12-25T04:53:34.124Z,1.70
2017-12-25T04:56:02.364Z,2.03
2017-12-25T04:58:29.827Z,2.20
2017-12-25T05:00:57.314Z,2.13
2017-12-25T05:03:24.777Z,1.40
2017-12-25T05:05:53.037Z,2.20
2017-12-25T05:08:20.497Z,1.90
2017-12-25T05:10:48.735Z,2.27
2017-12-25T05:13:16.193Z,2.60
2017-12-25T05:15:43.659Z,2.30
2017-12-25T05:18:11.128Z,2.30
2017-12-25T05:20:38.594Z,2.33
2017-12-25T05:23:06.165Z,1.47
2017-12-25T05:25:34.393Z,2.33
2017-12-25T05:28:01.856Z,2.47
2017-12-25T05:30:29.335Z,3.03
2017-12-25T05:32:56.802Z,2.20
2017-12-25T05:35:24.260Z,2.10
2017-12-25T05:37:51.818Z,2.67
2017-12-25T05:40:19.283Z,2.70
2017-12-25T05:42:46.850Z,2.43
2017-12-25T05:45:14.666Z,2.73
2017-12-25T05:47:42.132Z,3.00
2017-12-25T05:50:09.595Z,2.23
2017-12-25T05:52:37.068Z,2.97
2017-12-25T05:55:04.525Z,2.60
2017-12-25T05:57:32.003Z,2.50
2017-12-25T05:59:59.469Z,2.40
2017-12-25T06:02:26.939Z,2.97
2017-12-25T06:04:55.163Z,2.90
2017-12-25T06:07:22.675Z,2.73
2017-12-25T06:09:50.131Z,2.40
2017-12-25T06:12:18.367Z,2.40
2017-12-25T06:14:45.828Z,2.70
2017-12-25T06:17:13.309Z,2.90
2017-12-25T06:19:40.765Z,2.40
2017-12-25T06:22:08.265Z,2.50
2017-12-25T06:24:35.783Z,2.97
2017-12-25T06:27:04.769Z,2.80
2017-12-25T06:29:32.258Z,2.73
2017-12-25T06:32:00.496Z,3.60
2017-12-25T06:34:27.964Z,2.50
2017-12-25T06:36:55.436Z,2.57
2017-12-25T06:39:22.904Z,3.13
2017-12-25T06:41:50.365Z,2.73
2017-12-25T06:44:18.616Z,3.23
2017-12-25T06:46:46.550Z,3.20
2017-12-25T06:49:14.052Z,3.27
2017-12-25T06:51:43.041Z,2.87
2017-12-25T06:54:10.495Z,2.73
2017-12-25T06:56:38.043Z,2.40
2017-12-25T06:59:05.568Z,2.20
2017-12-25T07:01:33.046Z,2.10
2017-12-25T07:04:00.506Z,1.80
2017-12-25T07:06:27.966Z,2.27
2017-12-25T07:08:55.440Z,2.30
2017-12-25T07:11:23.039Z,1.97
2017-12-25T07:13:51.287Z,2.40
2017-12-25T07:16:18.751Z,1.77
2017-12-25T07:18:47.731Z,1.90
2017-12-25T07:21:15.203Z,1.87
2017-12-25T07:23:42.655Z,1.80
2017-12-25T07:26:10.891Z,2.00
2017-12-25T07:28:38.356Z,1.87
2017-12-25T07:31:05.847Z,1.47
2017-12-25T07:33:33.419Z,1.63
2017-12-25T07:36:02.426Z,1.63
2017-12-25T07:38:29.871Z,1.53
2017-12-25T07:40:58.848Z,1.73
2017-12-25T07:43:26.325Z,1.40
2017-12-25T07:45:53.872Z,1.70
2017-12-25T07:48:21.356Z,1.50
2017-12-25T07:50:49.608Z,1.70
2017-12-25T07:53:17.086Z,1.23
2017-12-25T07:55:44.564Z,1.30
2017-12-25T07:58:12.043Z,1.27
2017-12-25T08:00:39.491Z,1.37
2017-12-25T08:03:06.981Z,1.10
2017-12-25T08:05:34.472Z,1.30
2017-12-25T08:08:01.936Z,1.53
2017-12-25T08:10:30.159Z,1.10
2017-12-25T08:12:57.639Z,1.37
2017-12-25T08:15:25.103Z,1.63
2017-12-25T08:17:52.593Z,1.50
2017-12-25T08:20:20.825Z,1.23
2017-12-25T08:22:48.346Z,1.50
2017-12-25T08:25:15.804Z,1.50
2017-12-25T08:27:43.283Z,1.30
2017-12-25T08:30:10.760Z,1.00
2017-12-25T08:32:38.237Z,1.17
2017-12-25T08:35:05.699Z,0.97
2017-12-25T08:37:33.168Z,1.07
2017-12-25T08:40:00.622Z,1.20
2017-12-25T08:42:28.099Z,1.13
2017-12-25T08:44:56.328Z,1.00
2017-12-25T08:47:23.804Z,1.33
2017-12-25T08:49:51.255Z,1.10
2017-12-25T08:52:18.804Z,1.50
2017-12-25T08:54:46.268Z,1.20
2017-12-25T08:57:13.734Z,0.90
2017-12-25T08:59:41.302Z,1.10
2017-12-25T09:02:09.535Z,1.77
2017-12-25T09:04:36.999Z,1.07
2017-12-25T09:07:04.468Z,1.20
2017-12-25T09:09:31.935Z,1.20
2017-12-25T09:11:59.409Z,1.00
2017-12-25T09:14:28.378Z,1.33
2017-12-25T09:16:55.858Z,1.20
2017-12-25T09:19:23.325Z,0.80
2017-12-25T09:21:50.795Z,1.20
2017-12-25T09:24:19.029Z,1.10
2017-12-25T09:26:46.503Z,1.00
2017-12-25T09:29:13.971Z,1.10
2017-12-25T09:31:42.253Z,1.10
2017-12-25T09:34:10.489Z,0.90
2017-12-25T09:36:37.952Z,1.27
2017-12-25T09:39:05.443Z,0.90
2017-12-25T09:41:32.907Z,1.00
2017-12-25T09:44:00.455Z,1.23
2017-12-25T09:46:27.919Z,1.37
2017-12-25T09:48:55.392Z,1.03
2017-12-25T09:51:22.846Z,1.10
2017-12-25T09:53:51.090Z,1.40
2017-12-25T09:56:18.556Z,1.10
2017-12-25T09:58:46.023Z,1.30
2017-12-25T10:01:15.004Z,1.70
2017-12-25T10:03:42.597Z,1.00
2017-12-25T10:06:10.867Z,1.20
2017-12-25T10:08:38.410Z,1.50
2017-12-25T10:11:05.867Z,1.27
2017-12-25T10:13:33.335Z,1.37
2017-12-25T10:16:00.791Z,0.93
2017-12-25T10:18:28.260Z,1.37
2017-12-25T10:20:57.133Z,1.07
2017-12-25T10:23:24.655Z,1.33
2017-12-25T10:25:52.115Z,1.50
2017-12-25T10:28:19.601Z,1.03
2017-12-25T10:30:47.064Z,1.20
2017-12-25T10:33:14.538Z,0.93
2017-12-25T10:35:41.997Z,0.80
2017-12-25T10:38:09.458Z,1.00
2017-12-25T10:40:36.922Z,1.30
2017-12-25T10:43:04.389Z,0.80
2017-12-25T10:45:32.615Z,1.30
2017-12-25T10:48:00.078Z,1.30
2017-12-25T10:50:27.547Z,1.27
2017-12-25T10:52:55.007Z,0.90
2017-12-25T10:55:22.604Z,1.20
2017-12-25T10:57:50.847Z,0.87
2017-12-25T11:00:19.885Z,0.93
2017-12-25T11:02:48.132Z,0.57
2017-12-25T11:05:15.600Z,1.13
2017-12-25T11:07:43.845Z,0.80
2017-12-25T11:10:11.319Z,0.93
2017-12-25T11:12:39.624Z,1.10
2017-12-25T11:15:07.055Z,1.10
2017-12-25T11:17:34.639Z,1.10
2017-12-25T11:20:02.859Z,0.70
2017-12-25T11:22:30.352Z,0.93
2017-12-25T11:24:57.816Z,1.27
2017-12-25T11:27:25.294Z,1.17
2017-12-25T11:29:53.520Z,0.87
2017-12-25T11:32:20.992Z,1.23
2017-12-25T11:34:48.669Z,0.70
2017-12-25T11:37:16.935Z,0.90
2017-12-25T11:39:44.398Z,1.07
2017-12-25T11:42:11.859Z,1.00
2017-12-25T11:44:39.334Z,1.13
2017-12-25T11:47:07.569Z,1.00
2017-12-25T11:49:35.053Z,1.20
2017-12-25T11:52:03.303Z,0.83
2017-12-25T11:54:30.776Z,0.87
2017-12-25T11:56:58.293Z,0.90
2017-12-25T11:59:25.722Z,1.20
2017-12-25T12:01:54.000Z,1.10
2017-12-25T12:04:22.263Z,1.00
2017-12-25T12:06:49.727Z,1.20
2017-12-25T12:09:17.968Z,1.23
2017-12-25T12:11:45.433Z,1.10
2017-12-25T12:14:12.945Z,0.97
2017-12-25T12:16:40.457Z,1.40
2017-12-25T12:19:07.938Z,1.27
2017-12-25T12:21:36.178Z,1.13
2017-12-25T12:24:03.659Z,1.47
2017-12-25T12:26:31.175Z,1.03
2017-12-25T12:28:58.664Z,1.03
2017-12-25T12:31:26.162Z,0.60
2017-12-25T12:33:54.396Z,1.10
2017-12-25T12:36:21.879Z,1.40
2017-12-25T12:38:49.399Z,1.20
2017-12-25T12:41:17.285Z,1.00
2017-12-25T12:43:44.748Z,1.30
2017-12-25T12:46:12.211Z,1.20
2017-12-25T12:48:39.675Z,1.10
2017-12-25T12:51:07.156Z,1.23
2017-12-25T12:53:35.391Z,1.37
2017-12-25T12:56:02.866Z,1.00
2017-12-25T12:58:30.326Z,0.90
2017-12-25T13:00:57.790Z,1.33
2017-12-25T13:03:26.063Z,0.93
2017-12-25T13:05:53.515Z,1.10
2017-12-25T13:08:21.007Z,1.20
2017-12-25T13:10:48.467Z,1.30
2017-12-25T13:13:16.724Z,0.80
2017-12-25T13:15:44.199Z,0.93
2017-12-25T13:18:11.715Z,1.33
2017-12-25T13:20:39.192Z,1.13
2017-12-25T13:23:06.663Z,1.27
2017-12-25T13:25:34.892Z,1.43
2017-12-25T13:28:02.355Z,1.33
2017-12-25T13:30:29.819Z,1.27
2017-12-25T13:32:57.291Z,1.07
2017-12-25T13:35:24.759Z,1.20
2017-12-25T13:37:53.017Z,0.97
2017-12-25T13:40:20.477Z,1.07
2017-12-25T13:42:47.952Z,1.00
2017-12-25T13:45:15.420Z,1.10
2017-12-25T13:47:42.875Z,0.90
2017-12-25T13:50:11.132Z,1.03
2017-12-25T13:52:38.604Z,1.03
2017-12-25T13:55:06.072Z,1.10
2017-12-25T13:57:34.307Z,0.90
2017-12-25T14:00:01.790Z,1.97
2017-12-25T14:02:29.248Z,1.27
2017-12-25T14:04:58.229Z,1.13
2017-12-25T14:07:25.696Z,0.90
2017-12-25T14:09:53.164Z,0.83
2017-12-25T14:12:20.642Z,1.13
2017-12-25T14:14:48.897Z,1.50
2017-12-25T14:17:16.351Z,1.10
2017-12-25T14:19:43.823Z,0.93
2017-12-25T14:22:12.057Z,1.17
2017-12-25T14:24:39.533Z,1.13
2017-12-25T14:27:07.005Z,1.10
2017-12-25T14:29:35.239Z,1.20
2017-12-25T14:32:02.737Z,1.40
2017-12-25T14:34:31.711Z,0.97
2017-12-25T14:36:59.174Z,1.40
2017-12-25T14:39:26.647Z,1.17
2017-12-25T14:41:55.655Z,1.30
2017-12-25T14:44:23.913Z,1.37
2017-12-25T14:46:51.390Z,1.50
2017-12-25T14:49:18.944Z,1.60
2017-12-25T14:51:46.409Z,1.47
2017-12-25T14:54:13.883Z,1.50
2017-12-25T14:56:42.113Z,1.60
2017-12-25T14:59:09.595Z,2.20
2017-12-25T15:01:37.067Z,1.70
2017-12-25T15:04:05.299Z,1.60
2017-12-25T15:06:32.768Z,1.80
2017-12-25T15:09:00.336Z,1.80
2017-12-25T15:11:27.791Z,1.37
2017-12-25T15:13:55.272Z,1.80
2017-12-25T15:16:23.496Z,2.33
2017-12-25T15:18:50.992Z,2.70
2017-12-25T15:21:18.460Z,1.63
2017-12-25T15:23:46.687Z,1.50
2017-12-25T15:26:14.142Z,1.40
2017-12-25T15:28:41.618Z,1.57
2017-12-25T15:31:09.084Z,1.47
2017-12-25T15:33:36.542Z,1.60
2017-12-25T15:36:04.143Z,1.80
2017-12-25T15:38:32.387Z,1.40
2017-12-25T15:40:59.956Z,1.43
2017-12-25T15:43:27.426Z,1.43
2017-12-25T15:45:55.655Z,1.60
2017-12-25T15:48:23.133Z,1.57
2017-12-25T15:50:50.600Z,2.40
2017-12-25T15:53:18.076Z,1.77
2017-12-25T15:55:46.315Z,1.47
2017-12-25T15:58:13.774Z,1.57
2017-12-25T16:00:41.259Z,1.70
2017-12-25T16:03:08.723Z,2.07
2017-12-25T16:05:36.962Z,1.70
2017-12-25T16:08:04.449Z,1.77
2017-12-25T16:10:31.910Z,1.43
2017-12-25T16:12:59.520Z,1.67
2017-12-25T16:15:27.021Z,1.53
2017-12-25T16:17:54.584Z,1.47
2017-12-25T16:20:22.835Z,1.47
2017-12-25T16:22:56.297Z,1.83
2017-12-25T16:25:23.775Z,1.40
2017-12-25T16:27:51.248Z,1.60
2017-12-25T16:30:18.722Z,1.70
2017-12-25T16:32:46.188Z,1.90
2017-12-25T16:35:13.743Z,2.13
2017-12-25T16:37:41.327Z,1.63
2017-12-25T16:40:08.804Z,1.77
2017-12-25T16:42:37.036Z,2.37
2017-12-25T16:45:04.620Z,2.07
2017-12-25T16:47:32.108Z,1.87
2017-12-25T16:49:59.592Z,2.43
2017-12-25T16:52:27.051Z,1.73
2017-12-25T16:54:54.527Z,1.97
2017-12-25T16:57:21.999Z,2.40
2017-12-25T16:59:49.463Z,1.47
2017-12-25T17:02:16.964Z,1.77
2017-12-25T17:04:44.440Z,1.60
2017-12-25T17:07:11.890Z,1.60
2017-12-25T17:09:39.386Z,1.60
2017-12-25T17:12:06.861Z,1.40
2017-12-25T17:14:34.332Z,1.40
2017-12-25T17:17:02.584Z,1.80
2017-12-25T17:19:30.059Z,1.70
2017-12-25T17:21:58.308Z,1.60
2017-12-25T17:24:25.791Z,1.70
2017-12-25T17:26:53.256Z,1.30
2017-12-25T17:29:20.744Z,1.67
2017-12-25T17:31:48.301Z,1.50
2017-12-25T17:34:16.835Z,1.87
2017-12-25T17:36:44.375Z,1.87
2017-12-25T17:39:11.849Z,1.60
2017-12-25T17:41:39.316Z,1.80
2017-12-25T17:44:06.840Z,2.00
2017-12-25T17:46:34.303Z,2.40
2017-12-25T17:49:01.767Z,2.00
2017-12-25T17:51:29.239Z,2.67
2017-12-25T17:53:56.716Z,1.80
2017-12-25T17:56:24.187Z,2.03
2017-12-25T17:58:52.415Z,2.03
2017-12-25T18:01:19.901Z,2.30
2017-12-25T18:03:47.374Z,2.57
2017-12-25T18:06:14.854Z,2.80
2017-12-25T18:08:42.347Z,2.70
2017-12-25T18:11:09.829Z,3.10
2017-12-25T18:13:37.303Z,3.23
2017-12-25T18:16:04.787Z,2.60
2017-12-25T18:18:32.246Z,3.00
2017-12-25T18:20:59.755Z,2.57
2017-12-25T18:23:27.220Z,3.20
2017-12-25T18:25:54.704Z,3.50
2017-12-25T18:28:22.940Z,3.33
2017-12-25T18:30:50.422Z,3.00
2017-12-25T18:33:17.886Z,3.63
2017-12-25T18:35:45.354Z,3.07
2017-12-25T18:38:13.597Z,2.70
2017-12-25T18:40:41.085Z,3.43
2017-12-25T18:43:09.319Z,3.30
2017-12-25T18:45:36.797Z,2.40
2017-12-25T18:48:04.271Z,2.77
2017-12-25T18:50:31.761Z,2.43
2017-12-25T18:52:59.245Z,3.17
2017-12-25T18:55:26.725Z,2.93
2017-12-25T18:57:54.195Z,2.77
2017-12-25T19:00:21.723Z,3.03
2017-12-25T19:02:49.177Z,3.10
2017-12-25T19:05:16.807Z,2.90
2017-12-25T19:07:44.505Z,3.10
2017-12-25T19:10:12.004Z,3.03
2017-12-25T19:12:39.476Z,2.63
2017-12-25T19:15:07.724Z,2.93
2017-12-25T19:17:35.200Z,3.60
2017-12-25T19:20:02.692Z,3.43
2017-12-25T19:22:30.147Z,2.70
2017-12-25T19:24:57.615Z,3.70
2017-12-25T19:27:25.075Z,3.77
2017-12-25T19:29:52.554Z,3.27
2017-12-25T19:32:20.041Z,3.50
2017-12-25T19:34:47.523Z,4.00
2017-12-25T19:37:15.770Z,3.07
2017-12-25T19:39:44.036Z,4.23
2017-12-25T19:42:11.504Z,3.70
2017-12-25T19:44:39.022Z,4.20
2017-12-25T19:47:06.528Z,3.97
2017-12-25T19:49:33.987Z,4.37
2017-12-25T19:52:01.456Z,4.00
2017-12-25T19:54:29.688Z,3.70
2017-12-25T19:56:57.235Z,3.73
2017-12-25T19:59:24.730Z,3.73
2017-12-25T20:01:52.211Z,3.97
2017-12-25T20:04:20.453Z,3.33
2017-12-25T20:06:48.048Z,4.30
2017-12-25T20:09:16.305Z,4.10
2017-12-25T20:11:43.778Z,4.17
2017-12-25T20:14:11.241Z,4.20
2017-12-25T20:16:39.499Z,4.40
2017-12-25T20:19:06.956Z,4.47
2017-12-25T20:21:34.466Z,4.77
2017-12-25T20:24:02.661Z,5.00
2017-12-25T20:26:30.133Z,4.47
2017-12-25T20:28:57.764Z,5.03
2017-12-25T20:31:25.253Z,5.47
2017-12-25T20:33:52.711Z,5.13
2017-12-25T20:36:20.175Z,5.67
2017-12-25T20:38:47.639Z,4.93
2017-12-25T20:44:08.625Z,5.60
2017-12-25T20:46:36.115Z,5.80
2017-12-25T20:49:03.678Z,5.17
2017-12-25T20:51:31.160Z,6.03
2017-12-25T20:53:59.383Z,6.60
2017-12-25T20:56:26.888Z,5.80
2017-12-25T20:58:54.354Z,5.60
2017-12-25T21:01:22.603Z,5.47
2017-12-25T21:03:50.180Z,5.07
2017-12-25T21:06:17.689Z,5.80
2017-12-25T21:08:45.198Z,5.97
2017-12-25T21:11:13.447Z,7.43
2017-12-25T21:13:40.928Z,7.20
2017-12-25T21:16:08.519Z,6.40
2017-12-25T21:18:36.751Z,6.30
2017-12-25T21:21:04.234Z,5.40
2017-12-25T21:23:32.511Z,5.60
2017-12-25T21:25:59.976Z,5.20
2017-12-25T21:28:28.211Z,5.00
2017-12-25T21:30:55.704Z,6.03
2017-12-25T21:33:23.943Z,5.30
2017-12-25T21:35:51.421Z,5.40
2017-12-25T21:38:18.989Z,5.90
2017-12-25T21:40:46.471Z,5.63
2017-12-25T21:43:14.705Z,5.30
2017-12-25T21:45:42.196Z,5.80
2017-12-25T21:48:10.465Z,5.37
2017-12-25T21:50:37.944Z,4.90
2017-12-25T21:53:06.189Z,5.63
2017-12-25T21:55:33.662Z,5.60
2017-12-25T21:58:01.223Z,5.33
2017-12-25T22:00:28.704Z,5.27
2017-12-25T22:02:56.182Z,4.80
2017-12-25T22:05:23.663Z,4.60
2017-12-25T22:07:51.158Z,5.40
2017-12-25T22:10:19.396Z,4.13
2017-12-25T22:12:46.868Z,4.60
2017-12-25T22:15:14.337Z,4.83
2017-12-25T22:17:41.808Z,4.63
2017-12-25T22:20:09.267Z,4.67
2017-12-25T22:22:37.526Z,5.17
2017-12-25T22:25:04.996Z,5.30
2017-12-25T22:27:32.480Z,4.70
2017-12-25T22:30:00.714Z,5.20
2017-12-25T22:32:28.186Z,6.00
2017-12-25T22:34:55.651Z,5.90
2017-12-25T22:37:23.892Z,7.00
2017-12-25T22:39:51.351Z,6.47
2017-12-25T22:42:18.843Z,6.57
2017-12-25T22:44:47.098Z,6.60
2017-12-25T22:47:14.585Z,6.33
2017-12-25T22:49:42.835Z,6.57
2017-12-25T22:52:10.341Z,8.67
2017-12-25T22:54:37.800Z,7.40
2017-12-25T22:57:05.285Z,6.70
2017-12-25T22:59:32.758Z,8.17
2017-12-25T23:02:00.254Z,7.90
2017-12-25T23:04:27.715Z,8.80
2017-12-25T23:06:56.000Z,8.57
2017-12-25T23:09:23.535Z,7.57
2017-12-25T23:11:51.019Z,7.40
2017-12-25T23:14:19.248Z,7.33
2017-12-25T23:16:46.722Z,8.80
2017-12-25T23:19:14.212Z,7.97
2017-12-25T23:21:41.715Z,7.53
2017-12-25T23:24:09.191Z,7.37
2017-12-25T23:26:36.688Z,7.20
2017-12-25T23:29:04.460Z,6.87
2017-12-25T23:31:31.925Z,7.97
2017-12-25T23:33:59.396Z,7.47
2017-12-25T23:36:26.860Z,7.40
2017-12-25T23:38:54.319Z,6.33
2017-12-25T23:41:21.812Z,6.97
2017-12-25T23:43:49.281Z,7.07
2017-12-25T23:46:16.753Z,7.07
2017-12-25T23:48:45.165Z,6.80
2017-12-25T23:51:12.712Z,8.30
2017-12-25T23:53:40.206Z,9.10
2017-12-25T23:56:08.465Z,8.50
2017-12-25T23:58:35.916Z,7.40
